Time;durP1;ratioP1;P1;durP2;ratioP2;P2;SDS_P1;SDS_P2;PMS_P1;PMS_P2;Temp;Humidity;BMP_temperature;BMP_pressure;BME280_temperature;BME280_humidity;BME280_pressure;Samples;Min_cycle;Max_cycle;Signal;HPM_P1;HPM_P2
2023/01/11 00:02:00;;;;;;;31.52;15.63;;;;;;;2.52;58.93;93219.53;5040806;28;20094;-76
2023/01/11 00:04:28;;;;;;;44.78;21.17;;;;;;;2.74;56.76;93220.91;5035493;28;20029;-76
2023/01/11 00:06:54;;;;;;;27.02;12.10;;;;;;;2.72;57.15;93207.28;5035156;28;20599;-75
2023/01/11 00:09:20;;;;;;;36.88;17.25;;;;;;;2.67;57.53;93210.72;5035654;28;20049;-75
2023/01/11 00:11:45;;;;;;;30.88;15.73;;;;;;;2.57;57.08;93189.84;5033209;28;20086;-76
2023/01/11 00:14:11;;;;;;;14.75;8.20;;;;;;;2.85;56.91;93206.59;5036276;28;20401;-76
2023/01/11 00:16:36;;;;;;;9.13;5.65;;;;;;;2.87;54.76;93183.47;5033392;28;20040;-76
2023/01/11 00:19:04;;;;;;;2.85;1.67;;;;;;;3.17;54.99;93219.91;5034377;28;20135;-76
2023/01/11 00:21:30;;;;;;;4.55;3.15;;;;;;;2.71;54.69;93205.69;5033767;28;20065;-76
2023/01/11 00:23:56;;;;;;;6.00;3.55;;;;;;;2.73;55.22;93200.97;5039168;28;20061;-76
2023/01/11 00:26:21;;;;;;;4.95;3.65;;;;;;;2.81;55.19;93223.97;5032251;28;20752;-74
2023/01/11 00:28:48;;;;;;;2.58;2.00;;;;;;;2.68;55.57;93227.28;5034898;28;20060;-75
2023/01/11 00:31:14;;;;;;;7.30;5.10;;;;;;;2.52;56.45;93222.16;5040527;28;20025;-75
2023/01/11 00:33:39;;;;;;;7.80;4.57;;;;;;;2.71;56.81;93237.22;5035448;28;20122;-75
2023/01/11 00:36:05;;;;;;;2.28;1.52;;;;;;;2.78;56.15;93230.59;5043008;28;20086;-75
2023/01/11 00:38:43;;;;;;;2.13;1.38;;;;;;;2.19;57.96;93238.72;5036613;28;20072;-75
2023/01/11 00:49:24;;;;;;;6.38;4.53;;;;;;;0.52;73.05;93264.88;5039238;28;20140;-75
2023/01/11 00:51:49;;;;;;;7.35;5.32;;;;;;;0.76;72.39;93239.69;5034307;28;20375;-77
2023/01/11 00:54:14;;;;;;;5.90;4.43;;;;;;;1.11;71.70;93241.44;5038370;28;20102;-74
2023/01/11 00:56:40;;;;;;;8.13;4.97;;;;;;;1.65;69.42;93252.69;5033354;28;20039;-75
2023/01/11 00:59:06;;;;;;;5.63;4.68;;;;;;;1.51;69.37;93253.56;5037148;28;20033;-76
2023/01/11 01:01:32;;;;;;;6.45;5.22;;;;;;;1.83;68.66;93263.59;5036160;28;20616;-75
2023/01/11 01:03:59;;;;;;;6.43;5.35;;;;;;;1.77;68.34;93254.97;5043560;28;20048;-76
2023/01/11 01:06:25;;;;;;;12.75;6.60;;;;;;;1.37;70.93;93240.28;5036440;28;20025;-75
2023/01/11 01:08:50;;;;;;;11.95;5.97;;;;;;;1.89;68.34;93236.31;5034746;28;20037;-75
2023/01/11 01:11:15;;;;;;;7.65;6.82;;;;;;;2.31;66.44;93241.75;5035530;28;20125;-74
2023/01/11 01:16:25;;;;;;;6.22;4.90;;;;;;;2.29;66.45;93246.53;5033055;28;20120;-73
2023/01/11 01:18:52;;;;;;;7.60;4.80;;;;;;;2.42;65.62;93235.38;5034428;28;20124;-75
2023/01/11 01:21:18;;;;;;;7.35;4.97;;;;;;;2.64;65.32;93260.41;5034346;28;20116;-75
2023/01/11 01:23:43;;;;;;;7.85;4.72;;;;;;;2.82;64.11;93264.94;5035179;28;20473;-75
2023/01/11 01:26:08;;;;;;;7.57;5.03;;;;;;;2.45;64.70;93245.31;5034145;28;20072;-74
2023/01/11 01:28:34;;;;;;;7.43;6.00;;;;;;;1.68;67.75;93246.13;5035293;28;20025;-75
2023/01/11 01:30:59;;;;;;;8.70;7.03;;;;;;;1.62;69.37;93261.09;5036577;28;20141;-76
2023/01/11 01:33:25;;;;;;;10.38;7.13;;;;;;;1.68;68.67;93257.38;5033194;28;20394;-76
2023/01/11 01:35:50;;;;;;;10.07;6.68;;;;;;;1.29;71.19;93251.28;5036129;28;20037;-75
2023/01/11 01:38:16;;;;;;;9.25;6.78;;;;;;;0.76;72.91;93268.50;5035017;28;20033;-75
2023/01/11 01:40:43;;;;;;;10.38;7.40;;;;;;;1.07;73.20;93263.97;5041483;28;20108;-75
2023/01/11 01:43:16;;;;;;;8.80;7.28;;;;;;;1.08;72.45;93273.41;5041052;28;20457;-75
2023/01/11 01:45:42;;;;;;;12.32;8.10;;;;;;;1.02;72.42;93279.69;5035673;28;20128;-77
2023/01/11 01:48:14;;;;;;;9.80;7.13;;;;;;;0.78;73.67;93269.81;5035079;28;20029;-75
2023/01/11 01:50:50;;;;;;;9.05;6.80;;;;;;;0.26;75.52;93282.41;5040356;28;20121;-77
2023/01/11 01:53:22;;;;;;;11.52;8.23;;;;;;;0.47;75.31;93278.75;5031193;28;20127;-74
2023/01/11 01:55:52;;;;;;;10.48;6.93;;;;;;;0.92;73.72;93271.88;5037948;28;20044;-74
2023/01/11 01:58:22;;;;;;;10.40;7.55;;;;;;;1.29;72.02;93274.09;5035822;28;20091;-75
2023/01/11 02:00:47;;;;;;;9.60;7.93;;;;;;;1.32;70.62;93282.22;5036382;28;20049;-75
2023/01/11 02:03:19;;;;;;;10.20;8.25;;;;;;;0.70;73.35;93278.19;5034693;28;20045;-75
2023/01/11 02:05:46;;;;;;;9.07;7.07;;;;;;;0.41;75.28;93279.78;5032945;28;20060;-77
2023/01/11 02:08:21;;;;;;;10.07;6.82;;;;;;;0.42;75.02;93301.50;5034109;28;20092;-74
2023/01/11 02:10:47;;;;;;;8.73;6.68;;;;;;;0.37;75.70;93289.22;5041444;28;20026;-75
2023/01/11 02:13:13;;;;;;;11.40;7.93;;;;;;;-0.42;76.89;93258.28;5035384;28;20053;-74
2023/01/11 02:15:38;;;;;;;11.90;7.05;;;;;;;-0.55;78.82;93287.50;5032047;28;20060;-75
2023/01/11 02:18:09;;;;;;;10.73;7.90;;;;;;;-0.20;79.28;93313.75;5033124;28;20095;-75
2023/01/11 02:20:35;;;;;;;9.55;7.28;;;;;;;0.24;76.90;93318.50;5033690;28;20048;-75
2023/01/11 02:23:25;;;;;;;10.35;8.07;;;;;;;0.43;75.74;93318.78;5033382;28;20040;-75
2023/01/11 02:26:26;;;;;;;9.25;7.22;;;;;;;-0.28;78.39;93318.66;5036521;28;20037;-77
2023/01/11 02:28:57;;;;;;;10.43;8.55;;;;;;;-0.55;79.74;93337.94;5033048;28;20041;-75
2023/01/11 02:31:25;;;;;;;10.98;9.07;;;;;;;-0.56;80.38;93340.78;5034352;28;20025;-75
2023/01/11 02:33:53;;;;;;;10.50;8.75;;;;;;;-0.53;80.75;93342.88;5033425;28;20096;-74
2023/01/11 02:36:36;;;;;;;10.20;8.52;;;;;;;-0.35;79.85;93334.59;5039574;28;20575;-75
2023/01/11 02:39:14;;;;;;;11.50;8.57;;;;;;;0.03;78.54;93350.91;5031475;28;20044;-77
2023/01/11 02:45:04;;;;;;;9.95;6.68;;;;;;;0.59;75.11;93334.22;5035372;28;20560;-77
2023/01/11 02:47:37;;;;;;;7.75;6.95;;;;;;;0.85;74.58;93360.34;5034069;28;20886;-75
2023/01/11 02:50:09;;;;;;;9.70;7.70;;;;;;;0.52;76.00;93353.81;5032642;28;20044;-76
2023/01/11 02:53:03;;;;;;;10.38;8.20;;;;;;;0.31;76.22;93321.63;5034066;28;20144;-75
2023/01/11 02:55:37;;;;;;;11.82;8.52;;;;;;;0.57;74.99;93340.75;5033481;28;20476;-76
2023/01/11 02:58:07;;;;;;;11.85;8.25;;;;;;;0.67;74.22;93352.00;5035559;28;20094;-76
2023/01/11 03:00:36;;;;;;;10.45;7.40;;;;;;;0.84;74.20;93356.94;5035342;28;20087;-76
2023/01/11 03:03:05;;;;;;;7.70;6.30;;;;;;;1.16;72.13;93319.97;5036885;28;20235;-77
2023/01/11 03:05:31;;;;;;;7.47;6.22;;;;;;;1.50;71.48;93348.94;5037027;28;20400;-75
2023/01/11 03:08:29;;;;;;;9.52;6.65;;;;;;;1.76;70.92;93358.28;5034731;28;20629;-75
2023/01/11 03:14:35;;;;;;;7.63;6.32;;;;;;;2.00;68.78;93348.78;5036216;28;20350;-76
2023/01/11 03:17:11;;;;;;;8.15;6.40;;;;;;;2.02;69.02;93356.34;5033660;28;20448;-74
2023/01/11 03:19:49;;;;;;;6.13;5.53;;;;;;;2.23;67.74;93357.81;5032539;28;20029;-75
2023/01/11 03:22:27;;;;;;;8.50;6.38;;;;;;;1.83;68.42;93339.63;5036728;28;20033;-77
2023/01/11 03:25:16;;;;;;;6.82;5.88;;;;;;;2.07;67.88;93341.38;5035148;28;20052;-75
2023/01/11 03:28:22;;;;;;;9.07;6.55;;;;;;;2.43;66.98;93352.44;5033978;28;20059;-74
2023/01/11 03:31:03;;;;;;;7.00;5.93;;;;;;;2.46;66.30;93354.50;5042239;28;20055;-75
2023/01/11 03:33:40;;;;;;;6.63;5.63;;;;;;;2.46;65.92;93320.38;5033418;28;20030;-77
2023/01/11 03:36:32;;;;;;;7.18;6.45;;;;;;;2.60;65.66;93346.03;5032534;28;20041;-75
2023/01/11 03:39:07;;;;;;;10.43;7.07;;;;;;;2.57;65.92;93351.81;5032830;28;20033;-75
2023/01/11 03:41:37;;;;;;;9.48;7.00;;;;;;;2.42;66.35;93350.84;5034018;28;20133;-75
2023/01/11 03:44:06;;;;;;;7.47;6.40;;;;;;;2.44;66.45;93347.97;5035106;28;20055;-75
2023/01/11 03:46:40;;;;;;;5.82;5.10;;;;;;;2.45;66.39;93355.56;5032616;28;20029;-76
2023/01/11 03:49:14;;;;;;;6.72;5.82;;;;;;;2.67;65.65;93362.22;5034737;28;20049;-76
2023/01/11 03:51:45;;;;;;;8.05;6.43;;;;;;;2.51;65.77;93353.69;5033688;28;20052;-75
2023/01/11 03:54:14;;;;;;;7.00;6.30;;;;;;;2.52;66.10;93365.75;5034868;28;20757;-75
2023/01/11 03:56:49;;;;;;;7.82;7.03;;;;;;;2.61;65.22;93352.81;5039178;28;20152;-76
2023/01/11 03:59:15;;;;;;;7.70;6.70;;;;;;;2.53;65.28;93351.56;5036176;28;20029;-77
2023/01/11 04:01:42;;;;;;;10.25;7.63;;;;;;;2.79;64.74;93365.28;5033129;28;20067;-74
2023/01/11 04:04:07;;;;;;;8.80;7.75;;;;;;;2.69;65.24;93365.38;5035238;28;20143;-75
2023/01/11 04:06:35;;;;;;;12.52;9.13;;;;;;;2.48;65.60;93360.28;5036765;28;20545;-74
2023/01/11 04:09:00;;;;;;;14.52;9.25;;;;;;;2.60;65.09;93367.03;5039584;28;20468;-75
2023/01/11 04:11:26;;;;;;;13.60;9.48;;;;;;;2.52;65.44;93363.13;5037120;28;20107;-75
2023/01/11 04:13:51;;;;;;;12.73;9.27;;;;;;;2.18;66.04;93334.22;5034985;28;20041;-75
2023/01/11 04:16:16;;;;;;;11.80;9.07;;;;;;;2.66;64.82;93350.94;5034116;28;20500;-74
2023/01/11 04:18:42;;;;;;;13.07;10.00;;;;;;;2.75;64.80;93380.78;5035980;28;20055;-76
2023/01/11 04:21:07;;;;;;;12.38;10.13;;;;;;;2.76;64.76;93384.22;5034139;28;20097;-75
2023/01/11 04:23:32;;;;;;;11.23;7.95;;;;;;;2.59;65.15;93389.06;5032625;28;20042;-75
2023/01/11 04:25:58;;;;;;;6.60;5.90;;;;;;;2.57;64.79;93393.81;5035212;28;20563;-78
2023/01/11 04:28:23;;;;;;;6.90;5.35;;;;;;;2.55;64.34;93380.19;5034703;28;20102;-74
2023/01/11 04:30:48;;;;;;;7.90;5.22;;;;;;;2.39;64.44;93375.03;5032019;28;20040;-77
2023/01/11 04:33:14;;;;;;;4.57;3.58;;;;;;;2.53;64.85;93404.06;5033368;28;20040;-75
2023/01/11 04:35:40;;;;;;;4.20;3.03;;;;;;;2.59;64.64;93407.44;5033385;28;20558;-75
2023/01/11 04:38:06;;;;;;;18.48;11.77;;;;;;;2.63;63.84;93397.97;5031110;28;20037;-75
2023/01/11 04:40:31;;;;;;;36.75;22.25;;;;;;;2.61;63.69;93408.72;5031700;28;20097;-76
2023/01/11 04:43:00;;;;;;;37.25;21.27;;;;;;;2.42;63.99;93395.47;5031800;28;20367;-75
2023/01/11 04:45:26;;;;;;;74.88;42.70;;;;;;;2.56;63.91;93413.22;5032550;28;20075;-75
2023/01/11 04:47:55;;;;;;;84.90;50.47;;;;;;;2.32;64.50;93398.16;5031540;28;20045;-75
2023/01/11 04:50:20;;;;;;;41.67;25.42;;;;;;;2.42;64.91;93416.47;5031632;28;20039;-74
2023/01/11 04:52:45;;;;;;;14.10;8.50;;;;;;;2.57;63.95;93420.84;5031796;28;20546;-75
2023/01/11 04:55:11;;;;;;;19.40;11.77;;;;;;;2.28;64.48;93407.63;5033594;28;20097;-75
2023/01/11 04:57:36;;;;;;;16.45;12.13;;;;;;;2.37;64.38;93392.88;5032020;28;20116;-76
2023/01/11 05:00:07;;;;;;;8.55;6.50;;;;;;;2.49;64.27;93429.31;5032679;28;20033;-76
2023/01/11 05:02:32;;;;;;;4.50;3.47;;;;;;;2.18;64.53;93383.28;5034368;28;20038;-75
2023/01/11 05:04:58;;;;;;;4.72;4.32;;;;;;;2.64;63.94;93426.59;5032990;28;20072;-74
2023/01/11 05:07:23;;;;;;;6.07;4.60;;;;;;;2.58;64.20;93417.16;5034308;28;20469;-77
2023/01/11 05:09:48;;;;;;;5.60;2.83;;;;;;;2.67;63.98;93426.03;5035224;28;20056;-75
2023/01/11 05:12:14;;;;;;;3.17;2.88;;;;;;;2.45;63.71;93410.66;5037551;28;20057;-76
2023/01/11 05:14:39;;;;;;;3.63;2.70;;;;;;;2.55;64.22;93432.69;5036877;28;20037;-75
2023/01/11 05:17:04;;;;;;;4.53;3.95;;;;;;;2.73;63.81;93450.41;5039713;28;20035;-75
2023/01/11 05:19:30;;;;;;;5.07;4.55;;;;;;;2.73;63.83;93445.94;5039420;28;20037;-75
2023/01/11 05:21:55;;;;;;;2.58;2.38;;;;;;;2.91;62.85;93449.75;5038649;28;20035;-75
2023/01/11 05:24:21;;;;;;;6.13;5.00;;;;;;;2.66;62.87;93421.03;5033825;28;20793;-75
2023/01/11 05:26:48;;;;;;;5.20;4.70;;;;;;;2.62;63.42;93433.16;5036499;28;20030;-75
2023/01/11 05:29:15;;;;;;;4.25;3.85;;;;;;;2.79;63.12;93438.81;5041372;28;20030;-75
2023/01/11 05:31:41;;;;;;;3.72;3.33;;;;;;;2.80;63.26;93450.88;5035637;28;20283;-75
2023/01/11 05:34:07;;;;;;;7.40;6.18;;;;;;;2.80;63.40;93443.00;5037817;28;20033;-77
2023/01/11 05:36:33;;;;;;;9.85;8.07;;;;;;;2.80;63.09;93435.13;5039010;28;20499;-76
2023/01/11 05:38:59;;;;;;;6.72;5.18;;;;;;;2.82;63.20;93454.03;5035538;28;20433;-76
2023/01/11 05:41:26;;;;;;;7.32;6.15;;;;;;;2.90;62.89;93448.19;5035718;28;20072;-76
2023/01/11 05:46:42;;;;;;;19.58;12.32;;;;;;;2.65;63.53;93443.09;5025832;28;20584;-75
2023/01/11 05:49:09;;;;;;;6.38;4.90;;;;;;;2.77;63.40;93462.72;5036825;28;20119;-76
2023/01/11 05:51:36;;;;;;;5.97;3.22;;;;;;;2.82;63.68;93462.69;5032817;28;20045;-75
2023/01/11 05:54:04;;;;;;;212.55;112.90;;;;;;;2.99;62.95;93469.44;5035023;28;20080;-75
2023/01/11 05:56:30;;;;;;;365.77;210.23;;;;;;;3.00;62.97;93468.34;5033277;28;20037;-75
2023/01/11 05:58:56;;;;;;;191.55;104.03;;;;;;;2.94;62.74;93457.06;5033671;28;20041;-75
2023/01/11 06:01:23;;;;;;;110.18;59.47;;;;;;;2.91;62.32;93447.13;5033801;28;20075;-74
2023/01/11 06:03:48;;;;;;;34.03;21.90;;;;;;;3.06;62.57;93475.91;5032520;28;20569;-75
2023/01/11 06:06:15;;;;;;;15.32;9.50;;;;;;;2.94;62.14;93457.06;5034016;28;20036;-74
2023/01/11 06:08:40;;;;;;;201.10;102.10;;;;;;;2.85;62.76;93461.34;5034611;28;20043;-76
2023/01/11 06:11:06;;;;;;;248.27;132.35;;;;;;;2.91;62.69;93468.94;5033435;28;20033;-75
2023/01/11 06:13:32;;;;;;;53.45;30.58;;;;;;;2.92;62.74;93486.28;5035572;28;20064;-75
2023/01/11 06:16:15;;;;;;;17.75;10.30;;;;;;;2.96;62.48;93489.13;5035438;28;20033;-76
2023/01/11 06:18:44;;;;;;;13.27;8.30;;;;;;;2.90;62.60;93498.88;5034823;28;20125;-76
2023/01/11 06:21:10;;;;;;;104.43;55.92;;;;;;;3.04;62.18;93501.66;5035349;28;20044;-75
2023/01/11 06:23:38;;;;;;;164.10;87.22;;;;;;;3.02;61.97;93495.94;5035943;28;20049;-76
2023/01/11 06:26:06;;;;;;;159.25;84.95;;;;;;;3.07;61.99;93511.66;5032821;28;20033;-73
2023/01/11 06:28:31;;;;;;;142.27;76.65;;;;;;;3.07;61.91;93524.78;5032639;28;20048;-75
2023/01/11 06:30:58;;;;;;;175.38;90.70;;;;;;;3.21;61.56;93520.47;5030220;28;20665;-73
2023/01/11 06:33:26;;;;;;;40.15;24.67;;;;;;;3.12;60.93;93516.09;5031918;28;20041;-75
2023/01/11 06:35:52;;;;;;;40.08;29.27;;;;;;;3.12;61.25;93516.09;5027855;28;20551;-73
2023/01/11 06:38:19;;;;;;;69.80;46.78;;;;;;;3.12;61.43;93537.91;5028717;28;20041;-74
2023/01/11 06:40:52;;;;;;;34.10;23.58;;;;;;;3.15;61.25;93526.81;5028840;28;20491;-74
2023/01/11 06:43:17;;;;;;;101.20;55.65;;;;;;;3.24;60.79;93533.06;5031051;28;20017;-73
2023/01/11 06:45:44;;;;;;;116.30;64.65;;;;;;;3.32;60.41;93519.34;5030317;28;20045;-76
2023/01/11 06:48:09;;;;;;;77.25;42.72;;;;;;;3.25;59.76;93516.25;5031315;28;20045;-77
2023/01/11 06:50:35;;;;;;;22.10;14.23;;;;;;;3.30;59.48;93529.34;5029218;28;20094;-77
2023/01/11 06:53:03;;;;;;;25.50;14.40;;;;;;;3.20;59.51;93512.88;5032033;28;20505;-74
2023/01/11 06:55:29;;;;;;;50.22;25.05;;;;;;;3.39;59.46;93535.59;5029004;28;20028;-74
2023/01/11 06:57:55;;;;;;;25.60;12.77;;;;;;;3.30;58.90;93524.09;5033239;28;20059;-76
2023/01/11 07:00:21;;;;;;;7.55;5.50;;;;;;;3.17;59.00;93535.22;5031382;28;20037;-74
2023/01/11 07:02:48;;;;;;;3.75;2.70;;;;;;;3.21;58.96;93546.75;5031402;28;20493;-74
2023/01/11 07:05:14;;;;;;;4.28;3.30;;;;;;;3.24;58.56;93558.56;5029402;28;20810;-75
2023/01/11 07:07:41;;;;;;;6.75;5.22;;;;;;;3.15;58.93;93557.56;5031878;28;20032;-75
2023/01/11 07:10:10;;;;;;;7.18;4.93;;;;;;;2.94;59.87;93552.44;5028924;28;20171;-75
2023/01/11 07:12:35;;;;;;;9.32;6.38;;;;;;;3.02;59.79;93540.59;5039887;28;20076;-75
2023/01/11 07:15:03;;;;;;;4.60;3.85;;;;;;;3.05;59.70;93570.78;5030592;28;20073;-74
2023/01/11 07:17:28;;;;;;;6.90;4.57;;;;;;;3.13;59.58;93555.25;5030067;28;20034;-75
2023/01/11 07:19:54;;;;;;;11.40;6.40;;;;;;;3.28;59.60;93581.41;5032978;28;20558;-75
2023/01/11 07:22:21;;;;;;;6.65;5.25;;;;;;;3.19;60.00;93562.00;5031304;28;20029;-74
2023/01/11 07:24:47;;;;;;;17.60;11.20;;;;;;;3.31;59.42;93557.22;5028782;28;20613;-74
2023/01/11 07:27:12;;;;;;;14.82;10.82;;;;;;;3.44;58.87;93552.38;5030282;28;20042;-74
2023/01/11 07:29:38;;;;;;;10.77;7.97;;;;;;;3.55;58.18;93578.31;5029334;28;20379;-75
2023/01/11 07:32:04;;;;;;;8.80;5.72;;;;;;;3.52;58.55;93581.53;5026270;28;20645;-74
2023/01/11 07:34:29;;;;;;;6.07;4.53;;;;;;;3.53;58.70;93577.03;5025568;28;20132;-75
2023/01/11 07:36:54;;;;;;;5.05;3.95;;;;;;;3.48;58.64;93592.84;5025798;28;20047;-75
2023/01/11 07:39:20;;;;;;;5.50;4.45;;;;;;;3.45;58.97;93598.66;5029686;28;20103;-75
2023/01/11 07:44:29;;;;;;;4.43;3.28;;;;;;;3.31;58.70;93588.75;5030444;28;20048;-76
2023/01/11 07:46:55;;;;;;;4.85;4.07;;;;;;;3.37;59.42;93590.28;5026349;28;20044;-74
2023/01/11 07:49:20;;;;;;;6.25;4.30;;;;;;;3.54;59.06;93573.34;5025678;28;20029;-75
2023/01/11 07:51:46;;;;;;;4.85;4.00;;;;;;;3.39;59.63;93576.84;5025408;28;20105;-76
2023/01/11 07:54:11;;;;;;;4.00;3.28;;;;;;;3.58;59.18;93600.66;5026771;28;20061;-76
2023/01/11 07:56:37;;;;;;;7.63;4.45;;;;;;;3.50;59.27;93611.75;5041538;28;20128;-75
2023/01/11 07:59:02;;;;;;;5.03;3.97;;;;;;;3.32;59.77;93602.69;5026588;28;20037;-75
2023/01/11 08:01:28;;;;;;;4.60;3.38;;;;;;;3.58;58.60;93613.78;5023496;28;20052;-75
2023/01/11 08:03:53;;;;;;;3.03;2.50;;;;;;;3.33;59.00;93607.66;5028549;28;20034;-75
2023/01/11 08:06:18;;;;;;;4.82;3.55;;;;;;;3.37;59.32;93615.78;5023967;28;20037;-74
2023/01/11 08:08:44;;;;;;;2.92;2.30;;;;;;;3.28;58.83;93610.31;5021515;28;20144;-75
2023/01/11 08:16:38;;;;;;;6.63;3.20;;;;;;;3.13;59.56;93639.31;5020350;28;20602;-75
2023/01/11 08:19:03;;;;;;;8.93;6.68;;;;;;;2.91;60.60;93637.03;5028637;28;20025;-75
2023/01/11 08:21:29;;;;;;;7.70;5.03;;;;;;;3.18;60.79;93657.69;5022173;28;20072;-75
2023/01/11 08:23:56;;;;;;;5.68;4.85;;;;;;;3.12;60.63;93658.78;5023711;28;20048;-75
2023/01/11 08:26:23;;;;;;;4.15;2.97;;;;;;;3.29;59.23;93653.94;5021995;28;20609;-75
2023/01/11 08:28:48;;;;;;;7.80;3.90;;;;;;;3.00;59.53;93628.59;5021975;28;20287;-75
2023/01/11 08:31:14;;;;;;;3.78;3.13;;;;;;;2.94;60.96;93683.00;5023129;28;20519;-76
2023/01/11 08:33:39;;;;;;;12.15;6.38;;;;;;;3.04;59.63;93675.06;5020782;28;20544;-77
2023/01/11 08:36:09;;;;;;;13.43;6.75;;;;;;;3.21;60.42;93682.63;5023861;28;20045;-73
2023/01/11 08:38:35;;;;;;;9.80;5.90;;;;;;;3.22;60.65;93679.75;5023429;28;20044;-74
2023/01/11 08:41:01;;;;;;;3.13;1.95;;;;;;;3.38;59.52;93675.19;5020492;28;20034;-74
2023/01/11 08:43:30;;;;;;;3.88;3.35;;;;;;;3.40;59.25;93670.44;5023865;28;20021;-74
2023/01/11 08:45:55;;;;;;;2.17;1.73;;;;;;;3.38;59.70;93672.56;5025560;28;20025;-75
2023/01/11 08:48:21;;;;;;;2.65;2.45;;;;;;;3.30;59.58;93689.69;5029268;28;20036;-75
2023/01/11 08:50:46;;;;;;;1.55;1.45;;;;;;;3.28;58.97;93672.63;5027376;28;20037;-75
2023/01/11 08:53:12;;;;;;;2.22;2.00;;;;;;;3.21;59.53;93678.16;5025706;28;20037;-75
2023/01/11 08:55:40;;;;;;;1.30;1.20;;;;;;;3.06;59.00;93645.91;5017452;28;20056;-74
2023/01/11 08:58:06;;;;;;;2.13;1.70;;;;;;;3.14;58.92;93674.25;5020249;28;20025;-75
2023/01/11 09:00:31;;;;;;;14.82;6.03;;;;;;;2.89;59.75;93654.16;5021699;28;20551;-75
2023/01/11 09:03:01;;;;;;;3.40;2.63;;;;;;;3.36;59.43;93688.63;5022857;28;20658;-75
2023/01/11 09:05:27;;;;;;;2.90;2.40;;;;;;;3.51;58.35;93706.16;5016602;28;20037;-76
2023/01/11 09:07:56;;;;;;;2.40;2.20;;;;;;;3.33;58.88;93696.25;5025898;28;20064;-75
2023/01/11 09:10:25;;;;;;;4.55;3.95;;;;;;;3.33;59.28;93691.75;5021569;28;20032;-75
2023/01/11 09:12:51;;;;;;;5.40;4.32;;;;;;;3.47;58.91;93699.06;5022550;28;20368;-75
2023/01/11 09:15:17;;;;;;;2.70;1.95;;;;;;;3.52;58.04;93694.59;5023099;28;20401;-75
2023/01/11 09:17:42;;;;;;;13.82;8.18;;;;;;;3.48;58.09;93709.31;5022591;28;20033;-75
2023/01/11 09:20:10;;;;;;;21.55;14.20;;;;;;;3.30;58.14;93708.09;5022098;28;20111;-74
2023/01/11 09:22:36;;;;;;;14.30;8.93;;;;;;;3.36;59.08;93688.63;5021122;28;20033;-74
2023/01/11 09:25:02;;;;;;;9.05;5.80;;;;;;;3.48;57.97;93698.78;5018792;28;20037;-75
2023/01/11 09:27:28;;;;;;;3.65;2.97;;;;;;;3.25;58.62;93709.94;5029755;28;20570;-75
2023/01/11 09:29:53;;;;;;;9.50;4.82;;;;;;;3.20;58.61;93692.34;5020937;28;20102;-75
2023/01/11 09:32:19;;;;;;;6.43;5.45;;;;;;;3.49;58.49;93710.88;5026058;28;20482;-75
2023/01/11 09:34:46;;;;;;;3.78;2.60;;;;;;;3.45;58.07;93709.84;5025259;28;20344;-75
2023/01/11 09:37:11;;;;;;;4.97;2.40;;;;;;;3.37;58.15;93708.59;5024596;28;20032;-74
2023/01/11 09:39:37;;;;;;;3.83;2.20;;;;;;;3.39;58.40;93695.94;5024253;28;20040;-76
2023/01/11 09:42:28;;;;;;;3.50;2.20;;;;;;;3.22;59.77;93715.75;5020407;28;20041;-75
2023/01/11 09:44:57;;;;;;;9.32;5.95;;;;;;;2.81;60.34;93649.44;5017283;28;20049;-74
2023/01/11 09:47:39;;;;;;;2.13;1.85;;;;;;;3.29;59.21;93703.88;5021596;28;20529;-74
2023/01/11 09:50:15;;;;;;;4.00;2.70;;;;;;;3.31;59.69;93704.41;5023144;28;20041;-75
2023/01/11 09:52:51;;;;;;;3.17;2.42;;;;;;;3.30;60.07;93689.69;5023586;28;20028;-75
2023/01/11 09:55:22;;;;;;;3.78;3.42;;;;;;;3.19;59.36;93690.78;5022095;28;20021;-75
2023/01/11 09:58:18;;;;;;;3.13;2.80;;;;;;;3.31;59.05;93709.66;5024449;28;20037;-75
2023/01/11 10:01:09;;;;;;;3.97;2.95;;;;;;;2.98;59.50;93686.69;5020848;28;20100;-75
2023/01/11 10:03:37;;;;;;;3.17;2.80;;;;;;;3.30;59.84;93710.72;5020230;28;20229;-74
2023/01/11 10:06:18;;;;;;;2.03;1.80;;;;;;;3.29;58.18;93705.72;5021499;28;20033;-74
2023/01/11 10:08:48;;;;;;;5.10;2.90;;;;;;;3.38;58.39;93709.34;5020536;28;20045;-75
2023/01/11 10:11:44;;;;;;;3.67;2.30;;;;;;;3.46;58.04;93715.91;5026310;28;20477;-75
2023/01/11 10:14:44;;;;;;;11.00;6.88;;;;;;;3.58;57.46;93713.72;5033885;28;20096;-76
2023/01/11 10:17:39;;;;;;;4.13;2.95;;;;;;;3.54;56.78;93712.69;5031924;28;20033;-75
2023/01/11 10:20:23;;;;;;;4.40;2.92;;;;;;;3.46;57.15;93719.31;5024967;28;20111;-74
2023/01/11 10:22:54;;;;;;;7.38;5.00;;;;;;;3.67;57.23;93717.38;5032908;28;20052;-74
2023/01/11 10:25:29;;;;;;;5.03;3.70;;;;;;;3.56;56.65;93713.22;5022633;28;20230;-75
2023/01/11 10:27:59;;;;;;;8.43;5.40;;;;;;;3.23;56.43;93675.28;5021560;28;20041;-75
2023/01/11 10:31:06;;;;;;;12.55;7.05;;;;;;;3.58;57.11;93713.72;5021504;28;20045;-74
2023/01/11 10:42:50;;;;;;;3.88;3.13;;;;;;;3.82;56.02;93706.75;5011144;28;20048;-75
2023/01/11 10:45:26;;;;;;;2.80;2.60;;;;;;;3.78;56.09;93700.47;5012558;28;20355;-76
2023/01/11 10:48:26;;;;;;;5.68;4.28;;;;;;;3.81;56.53;93705.97;5019825;28;20031;-75
2023/01/11 10:51:23;;;;;;;4.55;2.30;;;;;;;3.93;54.06;93695.09;5024016;28;20162;-75
2023/01/11 10:53:48;;;;;;;2.50;2.30;;;;;;;4.03;54.11;93694.22;5025276;28;20049;-76
2023/01/11 10:56:39;;;;;;;2.50;1.95;;;;;;;3.98;54.19;93699.53;5026126;28;20464;-75
2023/01/11 10:59:40;;;;;;;3.25;2.92;;;;;;;3.92;55.07;93693.53;5025105;28;20539;-76
2023/01/11 11:02:33;;;;;;;3.20;2.40;;;;;;;3.91;55.36;93699.88;5022501;28;20453;-76
2023/01/11 11:05:32;;;;;;;2.78;2.55;;;;;;;4.05;54.82;93692.91;5022046;28;21327;-76
2023/01/11 11:08:02;;;;;;;3.65;3.15;;;;;;;3.97;55.36;93695.31;5023096;28;20041;-76
2023/01/11 11:10:34;;;;;;;7.40;3.67;;;;;;;3.76;55.47;93671.81;5023713;28;20226;-75
2023/01/11 11:13:11;;;;;;;2.22;2.03;;;;;;;3.78;55.51;93697.81;5024877;28;20807;-76
2023/01/11 11:15:44;;;;;;;2.90;2.25;;;;;;;3.45;56.42;93643.34;5024524;28;20040;-76
2023/01/11 11:18:10;;;;;;;2.33;2.13;;;;;;;3.86;55.68;93657.00;5021984;28;20335;-75
2023/01/11 11:20:35;;;;;;;4.85;4.35;;;;;;;3.98;55.10;93675.84;5023347;28;20467;-76
2023/01/11 11:23:01;;;;;;;3.75;3.22;;;;;;;3.99;55.04;93694.00;5021985;28;21076;-76
2023/01/11 11:25:30;;;;;;;3.95;2.65;;;;;;;4.14;54.78;93682.56;5025136;28;20024;-75
2023/01/11 11:28:23;;;;;;;6.68;4.65;;;;;;;4.30;55.23;93691.16;5031551;28;20546;-75
2023/01/11 11:30:52;;;;;;;2.92;2.53;;;;;;;3.89;54.77;93672.25;5026228;28;20044;-75
2023/01/11 11:33:32;;;;;;;2.75;2.17;;;;;;;3.72;54.97;93683.16;5013618;28;20033;-76
2023/01/11 11:36:05;;;;;;;4.22;3.05;;;;;;;3.94;55.50;93691.41;5019812;28;20075;-75
2023/01/11 11:38:37;;;;;;;4.93;2.45;;;;;;;3.94;54.49;93696.66;5021757;28;20037;-76
2023/01/11 11:41:11;;;;;;;5.95;2.97;;;;;;;3.82;56.04;93693.59;5023697;28;20040;-75
2023/01/11 11:43:39;;;;;;;4.82;3.22;;;;;;;3.84;55.57;93708.06;5025848;28;20123;-75
2023/01/11 11:46:27;;;;;;;5.18;3.10;;;;;;;3.67;56.26;93691.84;5026073;28;20031;-75
2023/01/11 11:49:15;;;;;;;3.47;2.67;;;;;;;3.07;56.64;93698.22;5028503;28;20501;-76
2023/01/11 11:51:44;;;;;;;3.20;2.92;;;;;;;3.14;55.77;93714.44;5024107;28;20041;-76
2023/01/11 11:54:40;;;;;;;12.02;5.57;;;;;;;3.63;55.31;93711.84;5023328;28;20513;-74
2023/01/11 11:57:20;;;;;;;3.22;2.90;;;;;;;3.72;54.09;93714.72;5017734;28;20045;-77
2023/01/11 11:59:48;;;;;;;5.10;3.15;;;;;;;3.60;55.50;93680.84;5024259;28;20152;-76
2023/01/11 12:02:20;;;;;;;3.53;3.22;;;;;;;3.60;55.56;93714.25;5024241;28;20064;-75
2023/01/11 12:04:48;;;;;;;5.95;2.97;;;;;;;3.54;55.63;93717.97;5025815;28;20053;-75
2023/01/11 12:07:17;;;;;;;6.18;3.03;;;;;;;3.64;55.01;93691.59;5026784;28;20124;-76
2023/01/11 12:09:49;;;;;;;3.08;2.72;;;;;;;3.82;54.93;93693.59;5023027;28;20037;-75
2023/01/11 12:12:20;;;;;;;2.55;2.35;;;;;;;3.93;54.03;93724.03;5025478;28;20049;-76
2023/01/11 12:15:07;;;;;;;2.55;2.30;;;;;;;3.69;54.41;93731.03;5019400;28;20883;-74
2023/01/11 12:17:33;;;;;;;2.83;2.35;;;;;;;3.40;55.95;93713.31;5028892;28;20094;-74
2023/01/11 12:19:59;;;;;;;5.03;2.97;;;;;;;3.70;55.58;93719.44;5028831;28;20321;-75
2023/01/11 12:22:27;;;;;;;3.17;2.72;;;;;;;3.90;54.75;93716.69;5028097;28;20028;-75
2023/01/11 12:25:25;;;;;;;2.40;2.20;;;;;;;3.89;54.12;93733.53;5029547;28;20115;-75
2023/01/11 12:28:37;;;;;;;7.72;6.70;;;;;;;4.07;53.59;93717.09;5029651;28;20069;-75
2023/01/11 12:31:29;;;;;;;7.63;6.78;;;;;;;4.21;53.83;93727.78;5023266;28;20052;-75